createdAt,value
2022-11-12T00:00:02.000Z,98044
2022-11-12T00:05:02.000Z,98046
2022-11-12T00:10:02.000Z,98050
2022-11-12T00:15:02.000Z,98052
2022-11-12T00:20:02.000Z,98044
2022-11-12T00:25:02.000Z,98055
2022-11-12T00:45:02.000Z,98056
2022-11-12T00:50:02.000Z,98063
2022-11-12T00:55:02.000Z,98052
2022-11-12T01:00:02.000Z,98060
2022-11-12T01:05:02.000Z,98050
2022-11-12T01:10:02.000Z,98054
2022-11-12T01:15:02.000Z,98050
2022-11-12T01:20:02.000Z,98051
2022-11-12T01:25:02.000Z,98056
2022-11-12T01:30:02.000Z,98056
2022-11-12T01:35:02.000Z,98051
2022-11-12T01:40:02.000Z,98048
2022-11-12T01:45:02.000Z,98041
2022-11-12T01:50:02.000Z,98043
2022-11-12T01:55:02.000Z,98042
2022-11-12T02:00:02.000Z,98034
2022-11-12T02:05:02.000Z,98027
2022-11-12T02:10:02.000Z,98033
2022-11-12T02:15:02.000Z,98012
2022-11-12T02:20:02.000Z,98025
2022-11-12T02:25:02.000Z,98038
2022-11-12T02:30:02.000Z,98023
2022-11-12T02:35:02.000Z,98014
2022-11-12T02:40:02.000Z,98014
2022-11-12T02:45:02.000Z,98014
2022-11-12T02:50:02.000Z,98005
2022-11-12T02:55:02.000Z,98011
2022-11-12T03:00:02.000Z,98002
2022-11-12T03:05:02.000Z,98000
2022-11-12T03:10:02.000Z,97995
2022-11-12T03:15:02.000Z,97992
2022-11-12T03:20:02.000Z,97992
2022-11-12T03:25:02.000Z,97982
2022-11-12T03:30:02.000Z,98006
2022-11-12T03:35:02.000Z,97992
2022-11-12T03:40:02.000Z,97992
2022-11-12T03:45:02.000Z,97985
2022-11-12T03:50:02.000Z,97986
2022-11-12T03:55:02.000Z,97985
2022-11-12T04:00:02.000Z,97982
2022-11-12T04:05:02.000Z,97976
2022-11-12T04:10:02.000Z,97974
2022-11-12T04:15:02.000Z,97986
2022-11-12T04:20:02.000Z,97973
2022-11-12T04:25:02.000Z,97964
2022-11-12T04:30:02.000Z,97973
2022-11-12T04:35:02.000Z,97969
2022-11-12T04:40:02.000Z,97965
2022-11-12T04:45:02.000Z,97975
2022-11-12T04:50:02.000Z,97977
2022-11-12T04:55:02.000Z,97974
2022-11-12T05:00:02.000Z,97964
2022-11-12T05:05:02.000Z,97971
2022-11-12T05:10:02.000Z,97972
2022-11-12T05:15:02.000Z,97948
2022-11-12T05:20:02.000Z,97950
2022-11-12T05:25:02.000Z,97942
2022-11-12T05:30:02.000Z,97938
2022-11-12T05:35:02.000Z,97938
2022-11-12T05:40:02.000Z,97932
2022-11-12T05:45:02.000Z,97924
2022-11-12T05:50:02.000Z,97919
2022-11-12T05:55:02.000Z,97934
2022-11-12T06:00:02.000Z,97934
2022-11-12T06:05:02.000Z,97938
2022-11-12T06:10:02.000Z,97938
2022-11-12T06:15:02.000Z,97944
2022-11-12T06:20:02.000Z,97938
2022-11-12T06:25:02.000Z,97948
2022-11-12T06:30:02.000Z,97948
2022-11-12T06:35:02.000Z,97958
2022-11-12T06:40:02.000Z,97951
2022-11-12T06:45:02.000Z,97967
2022-11-12T06:50:02.000Z,97977
2022-11-12T06:55:02.000Z,97974
2022-11-12T07:00:02.000Z,97969
2022-11-12T07:05:02.000Z,97972
2022-11-12T07:10:02.000Z,97983
2022-11-12T07:15:02.000Z,97982
2022-11-12T07:20:02.000Z,97971
2022-11-12T07:25:02.000Z,97974
2022-11-12T07:30:02.000Z,97985
2022-11-12T07:35:02.000Z,97986
2022-11-12T07:40:02.000Z,98001
2022-11-12T07:45:02.000Z,98015
2022-11-12T07:50:02.000Z,98008
2022-11-12T07:55:02.000Z,98009
2022-11-12T08:00:02.000Z,98021
2022-11-12T08:05:02.000Z,98012
2022-11-12T08:10:02.000Z,98015
2022-11-12T08:15:02.000Z,98018
2022-11-12T08:20:02.000Z,98013
2022-11-12T08:25:02.000Z,98028
2022-11-12T08:30:02.000Z,98016
2022-11-12T08:35:02.000Z,98014
2022-11-12T08:40:02.000Z,98010
2022-11-12T08:45:02.000Z,98018
2022-11-12T08:50:02.000Z,98018
2022-11-12T08:55:02.000Z,98013
2022-11-12T09:00:02.000Z,98017
2022-11-12T09:05:02.000Z,98013
2022-11-12T09:10:02.000Z,98019
2022-11-12T09:15:02.000Z,98023
2022-11-12T09:20:02.000Z,98020
2022-11-12T09:25:02.000Z,98021
2022-11-12T09:30:02.000Z,98028
2022-11-12T09:35:02.000Z,98023
2022-11-12T09:40:02.000Z,98022
2022-11-12T09:45:02.000Z,98028
2022-11-12T09:50:02.000Z,98024
2022-11-12T09:55:02.000Z,98017
2022-11-12T10:00:02.000Z,98013
2022-11-12T10:05:02.000Z,98016
2022-11-12T10:10:02.000Z,98008
2022-11-12T10:15:02.000Z,98007
2022-11-12T10:20:02.000Z,97999
2022-11-12T10:25:02.000Z,97999
2022-11-12T10:30:02.000Z,97988
2022-11-12T10:35:02.000Z,97986
2022-11-12T10:40:02.000Z,97966
2022-11-12T10:45:02.000Z,97978
2022-11-12T10:50:02.000Z,97968
2022-11-12T10:55:02.000Z,97971
2022-11-12T11:00:02.000Z,97970
2022-11-12T11:05:02.000Z,97956
2022-11-12T11:10:02.000Z,97945
2022-11-12T11:15:02.000Z,97949
2022-11-12T11:20:02.000Z,97935
2022-11-12T11:25:02.000Z,97924
2022-11-12T11:30:02.000Z,97917
2022-11-12T11:35:02.000Z,97924
2022-11-12T11:40:02.000Z,97913
2022-11-12T11:45:02.000Z,97918
2022-11-12T11:50:02.000Z,97907
2022-11-12T11:55:02.000Z,97908
2022-11-12T12:00:02.000Z,97902
2022-11-12T12:05:02.000Z,97904
2022-11-12T12:10:02.000Z,97897
2022-11-12T12:15:02.000Z,97886
2022-11-12T12:20:02.000Z,97886
2022-11-12T12:25:02.000Z,97877
2022-11-12T12:30:02.000Z,97882
2022-11-12T12:35:02.000Z,97877
2022-11-12T12:40:02.000Z,97870
2022-11-12T12:45:02.000Z,97860
2022-11-12T12:50:02.000Z,97857
2022-11-12T12:55:02.000Z,97856
2022-11-12T13:00:02.000Z,97844
2022-11-12T13:05:02.000Z,97857
2022-11-12T13:10:02.000Z,97838
2022-11-12T13:15:02.000Z,97829
2022-11-12T13:20:02.000Z,97830
2022-11-12T13:25:02.000Z,97812
2022-11-12T13:30:02.000Z,97820
2022-11-12T13:35:02.000Z,97816
2022-11-12T13:40:02.000Z,97816
2022-11-12T13:45:02.000Z,97813
2022-11-12T13:50:02.000Z,97822
2022-11-12T13:55:02.000Z,97799
2022-11-12T14:00:02.000Z,97800
2022-11-12T14:05:02.000Z,97800
2022-11-12T14:10:02.000Z,97800
2022-11-12T14:15:02.000Z,97781
2022-11-12T14:20:02.000Z,97780
2022-11-12T14:25:02.000Z,97776
2022-11-12T14:30:02.000Z,97774
2022-11-12T14:35:02.000Z,97767
2022-11-12T14:40:02.000Z,97776
2022-11-12T14:45:02.000Z,97763
2022-11-12T14:50:02.000Z,97772
2022-11-12T14:55:02.000Z,97760
2022-11-12T15:00:02.000Z,97754
2022-11-12T15:05:02.000Z,97756
2022-11-12T15:10:02.000Z,97750
2022-11-12T15:15:02.000Z,97742
2022-11-12T15:20:02.000Z,97754
2022-11-12T15:25:02.000Z,97749
2022-11-12T15:30:02.000Z,97732
2022-11-12T15:35:02.000Z,97721
2022-11-12T15:40:02.000Z,97715
2022-11-12T15:45:02.000Z,97713
2022-11-12T15:50:02.000Z,97705
2022-11-12T15:55:02.000Z,97720
2022-11-12T16:00:02.000Z,97714
2022-11-12T16:05:02.000Z,97709
2022-11-12T16:10:02.000Z,97708
2022-11-12T16:15:02.000Z,97704
2022-11-12T16:20:02.000Z,97689
2022-11-12T16:25:02.000Z,97687
2022-11-12T16:30:02.000Z,97696
2022-11-12T16:35:02.000Z,97687
2022-11-12T16:40:02.000Z,97686
2022-11-12T16:45:02.000Z,97668
2022-11-12T16:50:02.000Z,97690
2022-11-12T16:55:02.000Z,97671
2022-11-12T17:00:02.000Z,97673
2022-11-12T17:05:02.000Z,97677
2022-11-12T17:10:02.000Z,97676
2022-11-12T17:15:02.000Z,97684
2022-11-12T17:20:02.000Z,97679
2022-11-12T17:25:02.000Z,97681
2022-11-12T17:30:02.000Z,97672
2022-11-12T17:35:02.000Z,97658
2022-11-12T17:40:02.000Z,97658
2022-11-12T17:45:02.000Z,97654
2022-11-12T17:50:02.000Z,97660
2022-11-12T17:55:02.000Z,97644
2022-11-12T18:00:02.000Z,97644
2022-11-12T18:05:02.000Z,97652
2022-11-12T18:10:02.000Z,97644
2022-11-12T18:15:02.000Z,97645
2022-11-12T18:20:02.000Z,97636
2022-11-12T18:25:02.000Z,97638
2022-11-12T18:30:02.000Z,97628
2022-11-12T18:35:02.000Z,97629
2022-11-12T18:40:02.000Z,97618
2022-11-12T18:45:02.000Z,97614
2022-11-12T18:50:02.000Z,97627
2022-11-12T18:55:02.000Z,97604
2022-11-12T19:00:02.000Z,97616
2022-11-12T19:05:02.000Z,97615
2022-11-12T19:10:02.000Z,97612
2022-11-12T19:15:02.000Z,97616
2022-11-12T19:20:02.000Z,97608
2022-11-12T19:25:02.000Z,97604
2022-11-12T19:30:02.000Z,97596
2022-11-12T19:35:02.000Z,97587
2022-11-12T19:40:02.000Z,97590
2022-11-12T19:45:02.000Z,97587
2022-11-12T19:50:02.000Z,97578
2022-11-12T19:55:02.000Z,97578
2022-11-12T20:00:02.000Z,97579
2022-11-12T20:05:02.000Z,97571
2022-11-12T20:10:02.000Z,97569
2022-11-12T20:15:02.000Z,97556
2022-11-12T20:20:02.000Z,97554
2022-11-12T20:25:02.000Z,97553
2022-11-12T20:30:02.000Z,97557
2022-11-12T20:35:02.000Z,97550
2022-11-12T20:40:02.000Z,97550
2022-11-12T20:45:02.000Z,97542
2022-11-12T20:50:02.000Z,97552
2022-11-12T20:55:02.000Z,97555
2022-11-12T21:00:02.000Z,97549
2022-11-12T21:05:02.000Z,97553
2022-11-12T21:10:02.000Z,97548
2022-11-12T21:15:02.000Z,97536
2022-11-12T21:20:02.000Z,97540
2022-11-12T21:25:02.000Z,97529
2022-11-12T21:30:02.000Z,97512
2022-11-12T21:35:02.000Z,97498
2022-11-12T21:40:02.000Z,97497
2022-11-12T21:45:02.000Z,97494
2022-11-12T21:50:02.000Z,97506
2022-11-12T21:55:02.000Z,97500
2022-11-12T22:00:02.000Z,97497
2022-11-12T22:05:02.000Z,97490
2022-11-12T22:10:02.000Z,97488
2022-11-12T22:15:02.000Z,97474
2022-11-12T22:20:02.000Z,97471
2022-11-12T22:25:02.000Z,97467
2022-11-12T22:30:02.000Z,97460
2022-11-12T22:35:02.000Z,97463
2022-11-12T22:40:02.000Z,97457
2022-11-12T22:45:02.000Z,97439
2022-11-12T22:50:02.000Z,97440
2022-11-12T22:55:02.000Z,97428
2022-11-12T23:00:02.000Z,97431
2022-11-12T23:05:02.000Z,97421
2022-11-12T23:10:02.000Z,97419
2022-11-12T23:15:02.000Z,97431
2022-11-12T23:20:02.000Z,97415
2022-11-12T23:25:02.000Z,97417
2022-11-12T23:30:02.000Z,97399
2022-11-12T23:35:02.000Z,97387
2022-11-12T23:40:02.000Z,97379
2022-11-12T23:45:02.000Z,97388
2022-11-12T23:50:02.000Z,97371
2022-11-12T23:55:02.000Z,97376
